Dragonera — CQEN — position and weather

sailwx.info

Track history (hours):
 
Tides and Currents Weather Stations Pressure Air Temp Water Temp Dewpoint Dewpoint Depression Visibility Wind Speed Wind Dir Waves Ship Positions

Dragonera

Last reported at 2017-Nov-24 07:30 UTC. Time now 2017-Nov-24 07:43 UTC.
Position N 53°21' E 008°30'.

Length 100 m; draft 4.3 m.

Type: Ship (hazmat cat B). MMSI: 255805691.

Date/timePositionNaut miles runAvg speedWind from/ knotsBaromVisibWave heightAir tempDewpointWater temp
2017-Nov-24 07:30N 53°21' E 008°30'0 0.0
2017-Nov-24 07:00N 53°21' E 008°30'0 0.0
2017-Nov-24 06:30N 53°21' E 008°30'0 0.0
2017-Nov-24 06:00N 53°21' E 008°30'0 0.0
2017-Nov-24 05:30N 53°21' E 008°30'0 0.0
2017-Nov-24 05:00N 53°21' E 008°30'0 0.0
2017-Nov-24 04:30N 53°21' E 008°30'0 0.0
2017-Nov-24 04:00N 53°21' E 008°30'0 0.0
2017-Nov-24 03:30N 53°21' E 008°30'0 0.0
2017-Nov-24 03:00N 53°21' E 008°30'0 0.0
2017-Nov-24 02:30N 53°21' E 008°30'0 0.0
2017-Nov-24 02:00N 53°21' E 008°30'0 0.0
2017-Nov-24 01:30N 53°21' E 008°30'0 0.0
2017-Nov-24 01:00N 53°21' E 008°30'0 0.0
2017-Nov-24 00:30N 53°21' E 008°30'0 0.0
2017-Nov-24 00:00N 53°21' E 008°30'0 0.2
2017-Nov-23 23:30N 53°21' E 008°30'3 5.9
2017-Nov-23 23:00N 53°24' E 008°30'4 8.4
2017-Nov-23 22:30N 53°28' E 008°30'4 6.7
2017-Nov-23 21:58N 53°31' E 008°33'0 0.1
2017-Nov-23 21:28N 53°31' E 008°34'0 0.0
2017-Nov-23 20:55N 53°31' E 008°34'0 0.0
2017-Nov-23 20:28N 53°31' E 008°34'0 0.0
2017-Nov-23 19:58N 53°31' E 008°34'0 0.0
2017-Nov-23 19:28N 53°31' E 008°34'0 0.0
2017-Nov-23 18:58N 53°31' E 008°34'0 0.0
2017-Nov-23 18:28N 53°31' E 008°34'0 0.0
2017-Nov-23 17:58N 53°31' E 008°34'0 0.0
2017-Nov-23 17:28N 53°31' E 008°34'0 0.0
2017-Nov-23 16:58N 53°31' E 008°34'0 0.0
2017-Nov-23 16:28N 53°31' E 008°34'0 0.1
2017-Nov-23 15:58N 53°31' E 008°34'0 0.0
2017-Nov-23 15:28N 53°31' E 008°34'0 0.2
2017-Nov-23 14:58N 53°31' E 008°33'0 0.1
2017-Nov-23 14:25N 53°31' E 008°33'0 0.4
2017-Nov-23 14:00N 53°31' E 008°33'1 2.8
2017-Nov-23 13:30N 53°33' E 008°34'5 9.7
2017-Nov-23 13:00N 53°37' E 008°29'713.3
2017-Nov-23 12:30N 53°41' E 008°21'713.8
2017-Nov-23 12:00N 53°45' E 008°12'713.4
2017-Nov-23 11:30N 53°50' E 008°04'1113.2
2017-Nov-23 10:39N 53°53' E 007°45'313.1
2017-Nov-23 10:25N 53°53' E 007°40'7512.0
2017-Nov-23 04:11N 53°36' E 005°37'311.2
2017-Nov-23 03:55N 53°35' E 005°32'511.0
2017-Nov-23 03:30N 53°33' E 005°25'611.0
2017-Nov-23 03:00N 53°32' E 005°16'611.1
2017-Nov-23 02:31N 53°30' E 005°08'611.3
2017-Nov-23 02:01N 53°28' E 004°59'611.4
2017-Nov-23 01:30N 53°25' E 004°50'611.1
2017-Nov-23 01:00N 53°22' E 004°42'612.1
2017-Nov-23 00:28N 53°17' E 004°37'612.1
2017-Nov-23 00:00N 53°12' E 004°33'612.0
2017-Nov-22 23:31N 53°06' E 004°28'612.1
2017-Nov-22 23:01N 53°01' E 004°23'612.1
2017-Nov-22 22:31N 52°56' E 004°19'612.1
2017-Nov-22 22:01N 52°50' E 004°14'612.0
2017-Nov-22 21:31N 52°46' E 004°07'612.2
2017-Nov-22 21:01N 52°42' E 004°00'612.4
2017-Nov-22 20:31N 52°37' E 003°53'612.6
2017-Nov-22 20:01N 52°32' E 003°46'612.5
2017-Nov-22 19:30N 52°28' E 003°39'  
2017-Nov-20 00:30N 50°03' W 001°25'5 9.5
2017-Nov-20 00:00N 50°01' W 001°32'510.3
2017-Nov-19 23:31N 49°60' W 001°40'611.1
2017-Nov-19 23:00N 49°58' W 001°48'611.8
2017-Nov-19 22:30N 49°57' W 001°57'612.2
2017-Nov-19 22:00N 49°55' W 002°06'1413.0
2017-Nov-19 20:54N 49°52' W 002°28'912.6
2017-Nov-19 20:12N 49°50' W 002°41'312.4
2017-Nov-19 19:58N 49°49' W 002°45'2012.0
2017-Nov-19 18:17N 49°40' W 003°13'811.8
2017-Nov-19 17:38N 49°36' W 003°24'111.6
2017-Nov-19 17:31N 49°35' W 003°25'711.7
2017-Nov-19 16:53N 49°31' W 003°35'1311.4
2017-Nov-19 15:45N 49°25' W 003°52'411.1
2017-Nov-19 15:25N 49°23' W 003°57'1910.6
2017-Nov-19 13:39N 49°14' W 004°22'310.2
2017-Nov-19 13:24N 49°13' W 004°26'8 9.7
2017-Nov-19 12:32N 49°09' W 004°37'2 9.2
2017-Nov-19 12:19N 49°08' W 004°40'5 9.1
2017-Nov-19 11:44N 49°05' W 004°47'3 8.8
2017-Nov-19 11:22N 49°03' W 004°51'3 8.7
2017-Nov-19 10:59N 49°02' W 004°55'5 8.7
2017-Nov-19 10:27N 48°60' W 005°02'4 8.7
2017-Nov-19 09:59N 48°58' W 005°07'4 8.6
2017-Nov-19 09:30N 48°55' W 005°12'4 8.8
2017-Nov-19 09:00N 48°53' W 005°18'5 9.0
2017-Nov-19 08:29N 48°50' W 005°24'5 9.5
2017-Nov-19 08:00N 48°48' W 005°30'5 9.6
2017-Nov-19 07:30N 48°46' W 005°36'5 9.7
2017-Nov-19 07:00N 48°41' W 005°40'5 9.5
2017-Nov-19 06:30N 48°37' W 005°43'5 9.9
2017-Nov-19 06:00N 48°33' W 005°46'810.2
2017-Nov-19 05:16N 48°26' W 005°52'310.6
2017-Nov-19 05:00N 48°23' W 005°53'510.6
2017-Nov-19 04:30N 48°19' W 005°57'510.9
2017-Nov-19 04:00N 48°14' W 006°01'911.2
2017-Nov-19 03:09N 48°05' W 006°07'211.4
2017-Nov-19 03:00N 48°04' W 006°08'611.5
2017-Nov-19 02:29N 47°59' W 006°12'611.4
2017-Nov-19 01:58N 47°54' W 006°17'511.4
2017-Nov-19 01:30N 47°49' W 006°20'611.2
2017-Nov-19 00:56N 47°43' W 006°25'511.3
2017-Nov-19 00:29N 47°39' W 006°29'610.9
2017-Nov-18 23:57N 47°34' W 006°33'510.8
2017-Nov-18 23:30N 47°30' W 006°36'5 9.9
2017-Nov-18 23:00N 47°25' W 006°39'5 9.4
2017-Nov-18 22:30N 47°21' W 006°43'5 9.7
2017-Nov-18 22:00N 47°17' W 006°46'610.4
2017-Nov-18 21:27N 47°11' W 006°49'610.3
2017-Nov-18 20:50N 47°06' W 006°53'4 9.8
2017-Nov-18 20:26N 47°02' W 006°56'510.2
2017-Nov-18 19:55N 46°57' W 006°60'410.3
2017-Nov-18 19:30N 46°54' W 007°03'1310.3
2017-Nov-18 18:16N 46°43' W 007°11'340 9.3
2017-Nov-17 05:30N 41°14' W 009°16'510.8
2017-Nov-17 05:00N 41°09' W 009°15'510.7
2017-Nov-17 04:31N 41°04' W 009°13'510.6
2017-Nov-17 04:00N 40°58' W 009°11'610.4
2017-Nov-17 03:23N 40°52' W 009°10'4010.6
2017-Nov-16 23:40N 40°14' W 008°58'310.7
2017-Nov-16 23:23N 40°11' W 008°57'  
2017-Nov-14 08:19N 39°30' W 009°51'3 9.4
2017-Nov-14 07:58N 39°27' W 009°50'4 9.6
2017-Nov-14 07:30N 39°23' W 009°50'  
Track history (hours):
 
Tides and Currents Weather Stations Pressure Air Temp Water Temp Dewpoint Dewpoint Depression Visibility Wind Speed Wind Dir Waves Ship Positions

Dragonera

Last reported at 2017-Nov-24 07:30 UTC. Time now 2017-Nov-24 07:43 UTC.
Position N 53°21' E 008°30'.

Length 100 m; draft 4.3 m.

Type: Ship (hazmat cat B). MMSI: 255805691.

Date/timePositionNaut miles runAvg speedWind from/ knotsBaromVisibWave heightAir tempDewpointWater temp
2017-Nov-24 07:30N 53°21' E 008°30'0 0.0
2017-Nov-24 07:00N 53°21' E 008°30'0 0.0
2017-Nov-24 06:30N 53°21' E 008°30'0 0.0
2017-Nov-24 06:00N 53°21' E 008°30'0 0.0
2017-Nov-24 05:30N 53°21' E 008°30'0 0.0
2017-Nov-24 05:00N 53°21' E 008°30'0 0.0
2017-Nov-24 04:30N 53°21' E 008°30'0 0.0
2017-Nov-24 04:00N 53°21' E 008°30'0 0.0
2017-Nov-24 03:30N 53°21' E 008°30'0 0.0
2017-Nov-24 03:00N 53°21' E 008°30'0 0.0
2017-Nov-24 02:30N 53°21' E 008°30'0 0.0
2017-Nov-24 02:00N 53°21' E 008°30'0 0.0
2017-Nov-24 01:30N 53°21' E 008°30'0 0.0
2017-Nov-24 01:00N 53°21' E 008°30'0 0.0
2017-Nov-24 00:30N 53°21' E 008°30'0 0.0
2017-Nov-24 00:00N 53°21' E 008°30'0 0.2
2017-Nov-23 23:30N 53°21' E 008°30'3 5.9
2017-Nov-23 23:00N 53°24' E 008°30'4 8.4
2017-Nov-23 22:30N 53°28' E 008°30'4 6.7
2017-Nov-23 21:58N 53°31' E 008°33'0 0.1
2017-Nov-23 21:28N 53°31' E 008°34'0 0.0
2017-Nov-23 20:55N 53°31' E 008°34'0 0.0
2017-Nov-23 20:28N 53°31' E 008°34'0 0.0
2017-Nov-23 19:58N 53°31' E 008°34'0 0.0
2017-Nov-23 19:28N 53°31' E 008°34'0 0.0
2017-Nov-23 18:58N 53°31' E 008°34'0 0.0
2017-Nov-23 18:28N 53°31' E 008°34'0 0.0
2017-Nov-23 17:58N 53°31' E 008°34'0 0.0
2017-Nov-23 17:28N 53°31' E 008°34'0 0.0
2017-Nov-23 16:58N 53°31' E 008°34'0 0.0
2017-Nov-23 16:28N 53°31' E 008°34'0 0.1
2017-Nov-23 15:58N 53°31' E 008°34'0 0.0
2017-Nov-23 15:28N 53°31' E 008°34'0 0.2
2017-Nov-23 14:58N 53°31' E 008°33'0 0.1
2017-Nov-23 14:25N 53°31' E 008°33'0 0.4
2017-Nov-23 14:00N 53°31' E 008°33'1 2.8
2017-Nov-23 13:30N 53°33' E 008°34'5 9.7
2017-Nov-23 13:00N 53°37' E 008°29'713.3
2017-Nov-23 12:30N 53°41' E 008°21'713.8
2017-Nov-23 12:00N 53°45' E 008°12'713.4
2017-Nov-23 11:30N 53°50' E 008°04'1113.2
2017-Nov-23 10:39N 53°53' E 007°45'313.1
2017-Nov-23 10:25N 53°53' E 007°40'7512.0
2017-Nov-23 04:11N 53°36' E 005°37'311.2
2017-Nov-23 03:55N 53°35' E 005°32'511.0
2017-Nov-23 03:30N 53°33' E 005°25'611.0
2017-Nov-23 03:00N 53°32' E 005°16'611.1
2017-Nov-23 02:31N 53°30' E 005°08'611.3
2017-Nov-23 02:01N 53°28' E 004°59'611.4
2017-Nov-23 01:30N 53°25' E 004°50'611.1
2017-Nov-23 01:00N 53°22' E 004°42'612.1
2017-Nov-23 00:28N 53°17' E 004°37'612.1
2017-Nov-23 00:00N 53°12' E 004°33'612.0
2017-Nov-22 23:31N 53°06' E 004°28'612.1
2017-Nov-22 23:01N 53°01' E 004°23'612.1
2017-Nov-22 22:31N 52°56' E 004°19'612.1
2017-Nov-22 22:01N 52°50' E 004°14'612.0
2017-Nov-22 21:31N 52°46' E 004°07'612.2
2017-Nov-22 21:01N 52°42' E 004°00'612.4
2017-Nov-22 20:31N 52°37' E 003°53'612.6
2017-Nov-22 20:01N 52°32' E 003°46'612.5
2017-Nov-22 19:30N 52°28' E 003°39'  
2017-Nov-20 00:30N 50°03' W 001°25'5 9.5
2017-Nov-20 00:00N 50°01' W 001°32'510.3
2017-Nov-19 23:31N 49°60' W 001°40'611.1
2017-Nov-19 23:00N 49°58' W 001°48'611.8
2017-Nov-19 22:30N 49°57' W 001°57'612.2
2017-Nov-19 22:00N 49°55' W 002°06'1413.0
2017-Nov-19 20:54N 49°52' W 002°28'912.6
2017-Nov-19 20:12N 49°50' W 002°41'312.4
2017-Nov-19 19:58N 49°49' W 002°45'2012.0
2017-Nov-19 18:17N 49°40' W 003°13'811.8
2017-Nov-19 17:38N 49°36' W 003°24'111.6
2017-Nov-19 17:31N 49°35' W 003°25'711.7
2017-Nov-19 16:53N 49°31' W 003°35'1311.4
2017-Nov-19 15:45N 49°25' W 003°52'411.1
2017-Nov-19 15:25N 49°23' W 003°57'1910.6
2017-Nov-19 13:39N 49°14' W 004°22'310.2
2017-Nov-19 13:24N 49°13' W 004°26'8 9.7
2017-Nov-19 12:32N 49°09' W 004°37'2 9.2
2017-Nov-19 12:19N 49°08' W 004°40'5 9.1
2017-Nov-19 11:44N 49°05' W 004°47'3 8.8
2017-Nov-19 11:22N 49°03' W 004°51'3 8.7
2017-Nov-19 10:59N 49°02' W 004°55'5 8.7
2017-Nov-19 10:27N 48°60' W 005°02'4 8.7
2017-Nov-19 09:59N 48°58' W 005°07'4 8.6
2017-Nov-19 09:30N 48°55' W 005°12'4 8.8
2017-Nov-19 09:00N 48°53' W 005°18'5 9.0
2017-Nov-19 08:29N 48°50' W 005°24'5 9.5
2017-Nov-19 08:00N 48°48' W 005°30'5 9.6
2017-Nov-19 07:30N 48°46' W 005°36'5 9.7
2017-Nov-19 07:00N 48°41' W 005°40'5 9.5
2017-Nov-19 06:30N 48°37' W 005°43'5 9.9
2017-Nov-19 06:00N 48°33' W 005°46'810.2
2017-Nov-19 05:16N 48°26' W 005°52'310.6
2017-Nov-19 05:00N 48°23' W 005°53'510.6
2017-Nov-19 04:30N 48°19' W 005°57'510.9
2017-Nov-19 04:00N 48°14' W 006°01'911.2
2017-Nov-19 03:09N 48°05' W 006°07'211.4
2017-Nov-19 03:00N 48°04' W 006°08'611.5
2017-Nov-19 02:29N 47°59' W 006°12'611.4
2017-Nov-19 01:58N 47°54' W 006°17'511.4
2017-Nov-19 01:30N 47°49' W 006°20'611.2
2017-Nov-19 00:56N 47°43' W 006°25'511.3
2017-Nov-19 00:29N 47°39' W 006°29'610.9
2017-Nov-18 23:57N 47°34' W 006°33'510.8
2017-Nov-18 23:30N 47°30' W 006°36'5 9.9
2017-Nov-18 23:00N 47°25' W 006°39'5 9.4
2017-Nov-18 22:30N 47°21' W 006°43'5 9.7
2017-Nov-18 22:00N 47°17' W 006°46'610.4
2017-Nov-18 21:27N 47°11' W 006°49'610.3
2017-Nov-18 20:50N 47°06' W 006°53'4 9.8
2017-Nov-18 20:26N 47°02' W 006°56'510.2
2017-Nov-18 19:55N 46°57' W 006°60'410.3
2017-Nov-18 19:30N 46°54' W 007°03'1310.3
2017-Nov-18 18:16N 46°43' W 007°11'340 9.3
2017-Nov-17 05:30N 41°14' W 009°16'510.8
2017-Nov-17 05:00N 41°09' W 009°15'510.7
2017-Nov-17 04:31N 41°04' W 009°13'510.6
2017-Nov-17 04:00N 40°58' W 009°11'610.4
2017-Nov-17 03:23N 40°52' W 009°10'4010.6
2017-Nov-16 23:40N 40°14' W 008°58'310.7
2017-Nov-16 23:23N 40°11' W 008°57'  
2017-Nov-14 08:19N 39°30' W 009°51'3 9.4
2017-Nov-14 07:58N 39°27' W 009°50'4 9.6
2017-Nov-14 07:30N 39°23' W 009°50'  

Dump ship's entire track history